createdAt,value
2016-10-01T00:00:29.149Z,0
2016-10-01T00:01:29.149Z,0
2016-10-01T00:02:29.126Z,0
2016-10-01T00:03:29.115Z,0
2016-10-01T00:04:29.117Z,0
2016-10-01T00:05:29.109Z,0
2016-10-01T00:06:29.096Z,0
2016-10-01T00:07:29.090Z,0
2016-10-01T00:08:29.087Z,0
2016-10-01T00:09:29.085Z,0
2016-10-01T00:10:29.072Z,0
2016-10-01T00:11:29.060Z,0
2016-10-01T00:12:29.055Z,0
2016-10-01T00:13:29.044Z,0
2016-10-01T00:14:29.340Z,0
2016-10-01T00:15:29.026Z,0
2016-10-01T00:16:29.025Z,0
2016-10-01T00:19:30.403Z,0
2016-10-01T00:20:29.888Z,0
2016-10-01T00:21:31.177Z,0
2016-10-01T00:22:29.442Z,0
2016-10-01T00:23:29.507Z,0
2016-10-01T00:24:28.968Z,0
2016-10-01T00:25:28.945Z,0
2016-10-01T00:26:32.064Z,0
2016-10-01T00:27:31.732Z,0
2016-10-01T00:28:31.392Z,0
2016-10-01T00:29:31.014Z,0
2016-10-01T00:30:30.528Z,0
2016-10-01T00:31:28.910Z,0
2016-10-01T00:32:28.980Z,0
2016-10-01T00:33:28.891Z,0
2016-10-01T00:34:28.880Z,0
2016-10-01T00:35:28.876Z,0
2016-10-01T00:36:28.868Z,0
2016-10-01T00:37:28.860Z,0
2016-10-01T00:38:28.861Z,0
2016-10-01T00:39:28.842Z,0
2016-10-01T00:40:28.842Z,0
2016-10-01T00:41:28.834Z,0
2016-10-01T00:42:28.826Z,0
2016-10-01T00:43:29.922Z,0
2016-10-01T00:44:44.171Z,0
2016-10-01T00:47:29.536Z,0
2016-10-01T00:48:29.333Z,0
2016-10-01T00:49:29.717Z,0
2016-10-01T00:50:29.373Z,0
2016-10-01T00:51:28.758Z,0
2016-10-01T00:52:29.895Z,0
2016-10-01T00:53:43.906Z,0
2016-10-01T00:54:30.083Z,0
2016-10-01T00:55:30.307Z,0
2016-10-01T00:56:29.811Z,0
2016-10-01T00:57:28.709Z,0
2016-10-01T00:58:29.155Z,0
2016-10-01T00:59:29.098Z,0
2016-10-01T01:00:28.690Z,0
2016-10-01T01:01:28.675Z,0
2016-10-01T01:02:28.681Z,0
2016-10-01T01:03:28.667Z,0
2016-10-01T01:04:28.663Z,0
2016-10-01T01:05:28.648Z,0
2016-10-01T01:06:28.650Z,0
2016-10-01T01:07:28.633Z,0
2016-10-01T01:08:28.625Z,0
2016-10-01T01:09:28.621Z,0
2016-10-01T01:10:28.614Z,0
2016-10-01T01:11:28.606Z,0
2016-10-01T01:12:28.599Z,0
2016-10-01T01:13:28.592Z,0
2016-10-01T01:14:28.598Z,0
2016-10-01T01:15:28.572Z,0
2016-10-01T01:16:28.565Z,0
2016-10-01T01:17:28.560Z,0
2016-10-01T01:18:28.555Z,0
2016-10-01T01:19:28.539Z,0
2016-10-01T01:20:28.538Z,0
2016-10-01T01:21:28.526Z,0
2016-10-01T01:22:28.514Z,0
2016-10-01T01:23:28.521Z,0
2016-10-01T01:24:28.505Z,0
2016-10-01T01:25:28.500Z,0
2016-10-01T01:26:28.498Z,0
2016-10-01T01:27:28.483Z,0
2016-10-01T01:28:28.777Z,0
2016-10-01T01:29:28.471Z,0
2016-10-01T01:30:28.456Z,0
2016-10-01T01:31:28.453Z,0
2016-10-01T01:32:28.443Z,0
2016-10-01T01:33:28.435Z,0
2016-10-01T01:34:28.424Z,0
2016-10-01T01:35:29.938Z,0
2016-10-01T01:37:30.876Z,0
2016-10-01T01:38:30.417Z,0
2016-10-01T01:39:28.941Z,0
2016-10-01T01:40:30.098Z,0
2016-10-01T01:41:28.369Z,0
2016-10-01T01:42:28.364Z,0
2016-10-01T01:43:28.354Z,0
2016-10-01T01:45:31.866Z,0
2016-10-01T01:46:30.065Z,0
2016-10-01T01:47:29.732Z,0
2016-10-01T01:48:28.414Z,0
2016-10-01T01:49:29.618Z,0
2016-10-01T01:50:28.307Z,0
2016-10-01T01:51:28.296Z,0
2016-10-01T01:52:28.394Z,0
2016-10-01T01:53:28.283Z,0
2016-10-01T01:54:28.270Z,0
2016-10-01T01:55:28.255Z,0
2016-10-01T01:56:28.260Z,0
2016-10-01T01:57:28.240Z,0
2016-10-01T01:58:28.539Z,0
2016-10-01T01:59:28.240Z,0
2016-10-01T02:00:28.224Z,0
2016-10-01T02:01:28.915Z,0
2016-10-01T02:02:43.117Z,0
2016-10-01T02:03:29.150Z,0
2016-10-01T02:05:28.281Z,0
2016-10-01T02:06:28.182Z,0
2016-10-01T02:07:28.161Z,0
2016-10-01T02:08:28.160Z,0
2016-10-01T02:09:28.151Z,0
2016-10-01T02:10:28.143Z,0
2016-10-01T02:11:29.292Z,0
2016-10-01T02:12:43.999Z,0
2016-10-01T02:13:28.816Z,0
2016-10-01T02:14:28.311Z,0
2016-10-01T02:15:29.202Z,0
2016-10-01T02:16:28.095Z,0
2016-10-01T02:17:28.095Z,0
2016-10-01T02:18:28.078Z,0
2016-10-01T02:19:28.068Z,0
2016-10-01T02:20:28.059Z,0
2016-10-01T02:21:28.048Z,0
2016-10-01T02:22:28.056Z,0
2016-10-01T02:23:28.042Z,0
2016-10-01T02:24:28.030Z,0
2016-10-01T02:25:28.028Z,0
2016-10-01T02:26:28.012Z,0
2016-10-01T02:27:28.005Z,0
2016-10-01T02:28:27.999Z,0
2016-10-01T02:29:27.985Z,0
2016-10-01T02:30:28.001Z,0
2016-10-01T02:31:27.975Z,0
2016-10-01T02:32:27.980Z,0
2016-10-01T02:33:27.955Z,0
2016-10-01T02:34:27.959Z,0
2016-10-01T02:35:27.953Z,0
2016-10-01T02:36:27.935Z,0
2016-10-01T02:37:27.934Z,0
2016-10-01T02:38:27.926Z,0
2016-10-01T02:39:27.907Z,0
2016-10-01T02:40:27.899Z,0
2016-10-01T02:41:27.899Z,0
2016-10-01T02:42:27.891Z,0
2016-10-01T02:43:27.884Z,0
2016-10-01T02:44:27.875Z,0
2016-10-01T02:45:27.866Z,0
2016-10-01T02:46:27.856Z,0
2016-10-01T02:47:27.869Z,0
2016-10-01T02:48:27.840Z,0
2016-10-01T02:49:27.837Z,0
2016-10-01T02:50:27.836Z,0
2016-10-01T02:51:27.819Z,0
2016-10-01T02:52:27.824Z,0
2016-10-01T02:53:28.846Z,0
2016-10-01T02:54:30.279Z,0
2016-10-01T02:55:31.621Z,0
2016-10-01T02:56:31.240Z,0
2016-10-01T02:57:27.774Z,0
2016-10-01T02:58:28.108Z,0
2016-10-01T02:59:28.345Z,0
2016-10-01T03:00:28.054Z,0
2016-10-01T03:01:27.752Z,0
2016-10-01T03:02:27.753Z,0
2016-10-01T03:03:30.770Z,0
2016-10-01T03:04:30.521Z,0
2016-10-01T03:05:30.099Z,0
2016-10-01T03:06:28.723Z,0
2016-10-01T03:07:27.699Z,0
2016-10-01T03:08:27.703Z,0
2016-10-01T03:09:27.695Z,0
2016-10-01T03:10:27.687Z,0
2016-10-01T03:11:27.691Z,0
2016-10-01T03:12:27.686Z,0
2016-10-01T03:13:27.659Z,0
2016-10-01T03:14:27.663Z,0
2016-10-01T03:15:27.644Z,0
2016-10-01T03:16:27.640Z,0
2016-10-01T03:17:27.627Z,0
2016-10-01T03:18:27.626Z,0
2016-10-01T03:19:27.616Z,0
2016-10-01T03:20:28.622Z,0
2016-10-01T03:21:28.705Z,0
2016-10-01T03:22:29.141Z,0
2016-10-01T03:23:27.886Z,0
2016-10-01T03:24:28.735Z,0
2016-10-01T03:25:27.574Z,0
2016-10-01T03:26:27.561Z,0
2016-10-01T03:27:27.863Z,0
2016-10-01T03:28:27.905Z,0
2016-10-01T03:29:28.054Z,0
2016-10-01T03:30:43.004Z,0
2016-10-01T03:31:27.779Z,0
2016-10-01T03:32:42.433Z,0
2016-10-01T03:33:27.968Z,0
2016-10-01T03:34:28.667Z,0
2016-10-01T03:35:27.828Z,0
2016-10-01T03:36:27.501Z,0
2016-10-01T03:37:27.493Z,0
2016-10-01T03:38:27.487Z,0
2016-10-01T03:39:27.478Z,0
2016-10-01T03:40:27.720Z,0
2016-10-01T03:41:27.462Z,0
2016-10-01T03:42:27.458Z,0
2016-10-01T03:43:27.448Z,0
2016-10-01T03:44:27.436Z,0
2016-10-01T03:45:27.433Z,0
2016-10-01T03:46:27.423Z,0
2016-10-01T03:47:27.428Z,0
2016-10-01T03:48:27.415Z,0
2016-10-01T03:49:27.418Z,0
2016-10-01T03:50:27.399Z,0
2016-10-01T03:51:27.395Z,0
2016-10-01T03:52:27.384Z,0
2016-10-01T03:53:27.375Z,0
2016-10-01T03:54:27.376Z,0
2016-10-01T03:55:27.372Z,0
2016-10-01T03:56:27.363Z,0
2016-10-01T03:57:27.350Z,0
2016-10-01T03:58:27.347Z,0
2016-10-01T03:59:27.338Z,0
2016-10-01T04:00:27.583Z,0
2016-10-01T04:01:27.322Z,0
2016-10-01T04:02:27.326Z,0
2016-10-01T04:03:27.309Z,0
2016-10-01T04:04:27.305Z,0
2016-10-01T04:05:27.305Z,0
2016-10-01T04:06:27.289Z,0
2016-10-01T04:07:27.280Z,0
2016-10-01T04:08:27.273Z,0
2016-10-01T04:09:27.274Z,0
2016-10-01T04:10:27.628Z,0
2016-10-01T04:11:28.775Z,0
2016-10-01T04:12:30.294Z,0
2016-10-01T04:13:31.395Z,0
2016-10-01T04:14:27.783Z,0
2016-10-01T04:15:27.323Z,0
2016-10-01T04:16:27.862Z,0
2016-10-01T04:17:28.154Z,0
2016-10-01T04:18:27.820Z,0
2016-10-01T04:19:27.199Z,0
2016-10-01T04:20:27.234Z,0
2016-10-01T04:21:28.722Z,0
2016-10-01T04:22:30.003Z,0
2016-10-01T04:23:29.743Z,0
2016-10-01T04:24:28.347Z,0
2016-10-01T04:25:27.158Z,0
2016-10-01T04:26:27.309Z,0
2016-10-01T04:27:27.152Z,0
2016-10-01T04:28:27.143Z,0
2016-10-01T04:29:27.134Z,0
2016-10-01T04:30:27.136Z,0
2016-10-01T04:31:27.122Z,0
2016-10-01T04:32:27.120Z,0
2016-10-01T04:33:27.105Z,0
2016-10-01T04:34:27.101Z,0
2016-10-01T04:35:27.088Z,0
2016-10-01T04:36:27.087Z,0
2016-10-01T04:37:27.082Z,0
2016-10-01T04:38:42.484Z,0
2016-10-01T04:39:28.873Z,0
2016-10-01T04:40:27.312Z,0
2016-10-01T04:41:27.815Z,0
2016-10-01T04:42:27.045Z,0
2016-10-01T04:43:27.537Z,0
2016-10-01T04:44:27.385Z,0
2016-10-01T04:45:27.029Z,0
2016-10-01T04:46:27.018Z,0
2016-10-01T04:47:41.981Z,0
2016-10-01T04:49:27.599Z,0
2016-10-01T04:50:41.915Z,0
2016-10-01T04:51:42.798Z,0
2016-10-01T04:52:26.985Z,0
2016-10-01T04:53:26.962Z,0
2016-10-01T04:54:26.967Z,0
2016-10-01T04:55:26.957Z,0
2016-10-01T04:56:27.198Z,0
2016-10-01T04:57:26.938Z,0
2016-10-01T04:58:26.935Z,0
2016-10-01T04:59:26.933Z,0
2016-10-01T05:00:26.921Z,0
2016-10-01T05:01:27.165Z,0
2016-10-01T05:02:26.919Z,0
2016-10-01T05:03:26.897Z,0
2016-10-01T05:04:26.893Z,0
2016-10-01T05:05:27.508Z,0
2016-10-01T05:06:27.223Z,0
2016-10-01T05:07:26.868Z,0
2016-10-01T05:08:26.868Z,5
2016-10-01T05:09:26.858Z,5
2016-10-01T05:10:26.861Z,5
2016-10-01T05:11:26.853Z,5
2016-10-01T05:12:26.837Z,5
2016-10-01T05:13:26.832Z,5
2016-10-01T05:14:26.827Z,5
2016-10-01T05:15:26.825Z,5
2016-10-01T05:16:26.804Z,5
2016-10-01T05:17:26.814Z,5
2016-10-01T05:18:26.796Z,5
2016-10-01T05:19:26.788Z,5
2016-10-01T05:20:26.783Z,10
2016-10-01T05:21:26.771Z,10
2016-10-01T05:22:27.064Z,10
2016-10-01T05:23:26.753Z,10
2016-10-01T05:24:26.753Z,10
2016-10-01T05:25:26.752Z,10
2016-10-01T05:26:26.757Z,15
2016-10-01T05:27:26.748Z,15
2016-10-01T05:28:26.731Z,15
2016-10-01T05:29:28.244Z,15
2016-10-01T05:30:28.234Z,15
2016-10-01T05:31:28.178Z,15
2016-10-01T05:32:28.045Z,15
2016-10-01T05:33:27.657Z,15
2016-10-01T05:34:26.689Z,15
2016-10-01T05:35:26.679Z,20
2016-10-01T05:36:26.668Z,20
2016-10-01T05:37:26.671Z,20
2016-10-01T05:38:27.928Z,20
2016-10-01T05:39:29.368Z,20
2016-10-01T05:40:30.885Z,25
2016-10-01T05:41:27.224Z,25
2016-10-01T05:42:26.856Z,30
2016-10-01T05:43:27.482Z,30
2016-10-01T05:44:26.627Z,35
2016-10-01T05:45:26.619Z,35
2016-10-01T05:46:26.741Z,35
2016-10-01T05:47:26.605Z,35
2016-10-01T05:48:26.609Z,40
2016-10-01T05:49:26.591Z,40
2016-10-01T05:50:26.595Z,45
2016-10-01T05:51:26.572Z,45
2016-10-01T05:52:26.567Z,45
2016-10-01T05:53:26.559Z,50
2016-10-01T05:54:26.560Z,55
2016-10-01T05:55:26.543Z,60
2016-10-01T05:56:42.415Z,70
2016-10-01T05:57:57.168Z,80
2016-10-01T05:58:27.500Z,85
2016-10-01T05:59:41.487Z,90
2016-10-01T06:01:26.755Z,90
2016-10-01T06:02:26.500Z,90
2016-10-01T06:03:26.494Z,90
2016-10-01T06:04:26.485Z,90
2016-10-01T06:06:27.236Z,80
2016-10-01T06:08:26.912Z,80
2016-10-01T06:09:26.454Z,70
2016-10-01T06:10:26.854Z,70
2016-10-01T06:11:27.054Z,70
2016-10-01T06:12:26.610Z,75
2016-10-01T06:13:26.443Z,85
2016-10-01T06:14:26.450Z,95
2016-10-01T06:15:26.419Z,100
2016-10-01T06:16:26.524Z,110
2016-10-01T06:17:26.434Z,110
2016-10-01T06:18:26.407Z,115
2016-10-01T06:19:26.396Z,110
2016-10-01T06:20:26.386Z,105
2016-10-01T06:21:26.393Z,95
2016-10-01T06:22:26.371Z,90
2016-10-01T06:23:26.380Z,85
2016-10-01T06:24:26.374Z,80
2016-10-01T06:25:26.358Z,85
2016-10-01T06:26:26.354Z,100
2016-10-01T06:27:26.359Z,110
2016-10-01T06:28:26.354Z,105
2016-10-01T06:29:26.345Z,90
2016-10-01T06:30:26.329Z,85
2016-10-01T06:31:26.335Z,85
2016-10-01T06:32:26.325Z,85
2016-10-01T06:33:26.311Z,90
2016-10-01T06:34:26.319Z,90
2016-10-01T06:35:26.300Z,90
2016-10-01T06:36:26.299Z,95
2016-10-01T06:37:26.593Z,110
2016-10-01T06:38:26.284Z,120
2016-10-01T06:39:26.277Z,125
2016-10-01T06:40:26.261Z,135
2016-10-01T06:41:26.273Z,145
2016-10-01T06:42:26.263Z,145
2016-10-01T06:43:26.255Z,145
2016-10-01T06:44:26.247Z,145
2016-10-01T06:45:26.246Z,155
2016-10-01T06:46:26.240Z,165
2016-10-01T06:47:27.252Z,170
2016-10-01T06:48:28.739Z,170
2016-10-01T06:49:28.508Z,170
2016-10-01T06:50:28.398Z,175
2016-10-01T06:51:28.018Z,175
2016-10-01T06:52:26.581Z,185
2016-10-01T06:53:26.824Z,200
2016-10-01T06:54:26.430Z,220
2016-10-01T06:55:26.189Z,235
2016-10-01T06:56:28.009Z,250
2016-10-01T06:57:27.961Z,280
2016-10-01T06:58:28.002Z,300
2016-10-01T06:59:27.951Z,315
2016-10-01T07:00:27.597Z,315
2016-10-01T07:01:26.153Z,300
2016-10-01T07:02:26.477Z,305
2016-10-01T07:03:26.149Z,295
2016-10-01T07:04:26.146Z,285
2016-10-01T07:05:26.141Z,290
2016-10-01T07:06:26.135Z,300
2016-10-01T07:07:26.130Z,305
2016-10-01T07:08:26.127Z,300
2016-10-01T07:09:26.125Z,300
2016-10-01T07:10:26.111Z,295
2016-10-01T07:11:26.112Z,290
2016-10-01T07:12:26.110Z,285
2016-10-01T07:13:26.103Z,275
2016-10-01T07:14:26.098Z,270
2016-10-01T07:15:56.424Z,285
2016-10-01T07:17:26.791Z,295
2016-10-01T07:18:26.088Z,315
2016-10-01T07:19:26.783Z,340
2016-10-01T07:20:26.071Z,360
2016-10-01T07:21:26.073Z,385
2016-10-01T07:22:26.069Z,390
2016-10-01T07:23:28.016Z,380
2016-10-01T07:25:56.286Z,325
2016-10-01T07:26:26.698Z,310
2016-10-01T07:27:26.046Z,290
2016-10-01T07:28:26.891Z,270
2016-10-01T07:29:26.045Z,250
2016-10-01T07:30:26.041Z,235
2016-10-01T07:31:26.034Z,230
2016-10-01T07:32:26.022Z,225
2016-10-01T07:33:26.023Z,220
2016-10-01T07:34:26.319Z,215
2016-10-01T07:35:26.015Z,210
2016-10-01T07:36:26.024Z,215
2016-10-01T07:37:26.008Z,210
2016-10-01T07:38:26.007Z,210
2016-10-01T07:39:25.995Z,210
2016-10-01T07:40:26.008Z,220
2016-10-01T07:41:25.993Z,245
2016-10-01T07:42:25.995Z,260
2016-10-01T07:43:25.990Z,255
2016-10-01T07:44:25.977Z,250
2016-10-01T07:45:25.985Z,235
2016-10-01T07:46:25.990Z,225
2016-10-01T07:47:25.968Z,215
2016-10-01T07:48:25.971Z,205
2016-10-01T07:49:26.265Z,195
2016-10-01T07:50:26.258Z,185
2016-10-01T07:51:25.958Z,190
2016-10-01T07:52:25.959Z,185
2016-10-01T07:53:25.947Z,180
2016-10-01T07:54:25.944Z,175
2016-10-01T07:55:25.948Z,180
2016-10-01T07:56:25.943Z,170
2016-10-01T07:57:25.935Z,170
2016-10-01T07:58:25.933Z,170
2016-10-01T07:59:25.934Z,170
2016-10-01T08:00:25.920Z,165
2016-10-01T08:01:25.917Z,160
2016-10-01T08:02:25.930Z,155
2016-10-01T08:03:25.911Z,150
2016-10-01T08:04:25.911Z,160
2016-10-01T08:06:29.466Z,160
2016-10-01T08:07:27.256Z,165
2016-10-01T08:08:27.108Z,170
2016-10-01T08:09:25.947Z,175
2016-10-01T08:10:27.347Z,175
2016-10-01T08:11:25.885Z,165
2016-10-01T08:12:25.878Z,160
2016-10-01T08:13:25.879Z,155
2016-10-01T08:14:27.004Z,145
2016-10-01T08:16:28.887Z,140
2016-10-01T08:17:26.777Z,140
2016-10-01T08:18:28.588Z,150
2016-10-01T08:19:27.235Z,155
2016-10-01T08:20:25.855Z,170
2016-10-01T08:21:25.840Z,190
2016-10-01T08:22:25.842Z,200
2016-10-01T08:23:25.837Z,210
2016-10-01T08:24:25.832Z,230
2016-10-01T08:25:25.831Z,240
2016-10-01T08:26:25.823Z,255
2016-10-01T08:27:25.828Z,270
2016-10-01T08:28:25.817Z,275
2016-10-01T08:29:26.123Z,280
2016-10-01T08:30:25.803Z,270
2016-10-01T08:31:25.804Z,255
2016-10-01T08:32:41.166Z,230
2016-10-01T08:33:27.659Z,210
2016-10-01T08:34:55.626Z,175
2016-10-01T08:35:26.240Z,175
2016-10-01T08:36:25.802Z,180
2016-10-01T08:37:26.335Z,190
2016-10-01T08:38:25.801Z,205
2016-10-01T08:39:25.781Z,230
2016-10-01T08:40:25.776Z,245
2016-10-01T08:41:27.627Z,255
2016-10-01T08:43:26.426Z,240
2016-10-01T08:44:25.936Z,220
2016-10-01T08:45:25.754Z,195
2016-10-01T08:46:26.304Z,170
2016-10-01T08:47:25.745Z,165
2016-10-01T08:48:25.733Z,155
2016-10-01T08:49:25.740Z,150
2016-10-01T08:50:25.732Z,140
2016-10-01T08:51:25.748Z,140
2016-10-01T08:52:25.741Z,140
2016-10-01T08:53:25.718Z,135
2016-10-01T08:54:25.719Z,140
2016-10-01T08:55:25.715Z,135
2016-10-01T08:56:25.710Z,130
2016-10-01T08:57:25.714Z,125
2016-10-01T08:58:25.717Z,135
2016-10-01T08:59:25.701Z,140
2016-10-01T09:00:25.691Z,140
2016-10-01T09:01:25.689Z,145
2016-10-01T09:02:25.706Z,145
2016-10-01T09:03:25.697Z,145
2016-10-01T09:04:25.673Z,145
2016-10-01T09:05:25.678Z,140
2016-10-01T09:06:25.671Z,135
2016-10-01T09:07:25.685Z,125
2016-10-01T09:08:25.658Z,120
2016-10-01T09:09:25.970Z,120
2016-10-01T09:10:25.646Z,115
2016-10-01T09:11:25.651Z,115
2016-10-01T09:12:25.640Z,125
2016-10-01T09:13:25.640Z,135
2016-10-01T09:14:25.949Z,140
2016-10-01T09:15:25.640Z,145
2016-10-01T09:16:25.635Z,145
2016-10-01T09:17:25.625Z,145
2016-10-01T09:18:25.619Z,135
2016-10-01T09:19:25.617Z,125
2016-10-01T09:20:25.624Z,110
2016-10-01T09:21:25.608Z,100
2016-10-01T09:22:25.605Z,100
2016-10-01T09:23:25.603Z,100
2016-10-01T09:24:28.764Z,100
2016-10-01T09:25:28.736Z,105
2016-10-01T09:26:28.689Z,110
2016-10-01T09:27:27.516Z,115
2016-10-01T09:28:26.283Z,115
2016-10-01T09:29:25.565Z,110
2016-10-01T09:30:25.569Z,110
2016-10-01T09:31:25.563Z,115
2016-10-01T09:32:25.558Z,115
2016-10-01T09:34:28.441Z,110
2016-10-01T09:35:28.426Z,105
2016-10-01T09:36:27.346Z,110
2016-10-01T09:37:26.165Z,120
2016-10-01T09:38:25.840Z,130
2016-10-01T09:39:25.526Z,130
2016-10-01T09:40:25.529Z,140
2016-10-01T09:41:25.543Z,145
2016-10-01T09:42:25.510Z,145
2016-10-01T09:43:25.513Z,135
2016-10-01T09:44:25.510Z,145
2016-10-01T09:45:25.506Z,160
2016-10-01T09:46:25.501Z,170
2016-10-01T09:47:25.490Z,175
2016-10-01T09:48:25.489Z,190
2016-10-01T09:49:25.481Z,190
2016-10-01T09:50:40.707Z,185
2016-10-01T09:51:40.687Z,185
2016-10-01T09:52:27.368Z,200
2016-10-01T09:53:40.678Z,205
2016-10-01T09:54:41.632Z,190
2016-10-01T09:55:25.705Z,185
2016-10-01T09:56:25.463Z,175
2016-10-01T09:57:25.848Z,165
2016-10-01T09:58:25.447Z,155
2016-10-01T09:59:27.334Z,155
2016-10-01T10:00:26.695Z,165
2016-10-01T10:01:40.940Z,190
2016-10-01T10:02:25.676Z,195
2016-10-01T10:03:25.416Z,195
2016-10-01T10:04:26.071Z,185
2016-10-01T10:05:25.403Z,170
2016-10-01T10:06:25.403Z,160
2016-10-01T10:07:25.647Z,170
2016-10-01T10:08:25.392Z,190
2016-10-01T10:09:25.383Z,225
2016-10-01T10:10:25.392Z,235
2016-10-01T10:11:25.389Z,230
2016-10-01T10:12:25.729Z,230
2016-10-01T10:13:25.373Z,215
2016-10-01T10:14:25.359Z,225
2016-10-01T10:15:25.367Z,220
2016-10-01T10:16:25.359Z,225
2016-10-01T10:17:25.599Z,230
2016-10-01T10:18:25.354Z,255
2016-10-01T10:19:25.344Z,270
2016-10-01T10:20:25.346Z,250
2016-10-01T10:21:25.337Z,210
2016-10-01T10:22:25.583Z,195
2016-10-01T10:23:25.329Z,190
2016-10-01T10:24:25.317Z,190
2016-10-01T10:25:25.320Z,200
2016-10-01T10:26:25.320Z,200
2016-10-01T10:27:25.306Z,190
2016-10-01T10:28:25.313Z,180
2016-10-01T10:29:25.300Z,165
2016-10-01T10:30:25.298Z,160
2016-10-01T10:31:25.297Z,160
2016-10-01T10:32:25.297Z,170
2016-10-01T10:33:25.288Z,195
2016-10-01T10:34:25.277Z,210
2016-10-01T10:35:25.275Z,210
2016-10-01T10:36:25.277Z,215
2016-10-01T10:37:25.269Z,225
2016-10-01T10:38:25.270Z,250
2016-10-01T10:39:25.263Z,280
2016-10-01T10:40:25.260Z,305
2016-10-01T10:41:25.267Z,340
2016-10-01T10:42:28.116Z,360
2016-10-01T10:43:26.534Z,350
2016-10-01T10:44:26.889Z,335
2016-10-01T10:45:26.816Z,340
2016-10-01T10:46:25.619Z,355
2016-10-01T10:47:26.187Z,370
2016-10-01T10:48:25.221Z,375
2016-10-01T10:49:25.408Z,380
2016-10-01T10:50:25.213Z,395
2016-10-01T10:51:44.101Z,405
2016-10-01T10:52:26.555Z,410
2016-10-01T10:53:26.939Z,420
2016-10-01T10:54:26.950Z,415
2016-10-01T10:55:25.803Z,410
2016-10-01T10:56:26.320Z,380
2016-10-01T10:57:25.179Z,365
2016-10-01T10:58:25.178Z,385
2016-10-01T10:59:25.176Z,380
2016-10-01T11:00:25.173Z,360
2016-10-01T11:01:25.164Z,340
2016-10-01T11:02:25.168Z,325
2016-10-01T11:03:25.173Z,310
2016-10-01T11:04:25.169Z,275
2016-10-01T11:05:25.154Z,245
2016-10-01T11:06:25.154Z,220
2016-10-01T11:07:25.149Z,200
2016-10-01T11:10:40.195Z,180
2016-10-01T11:11:27.088Z,170
2016-10-01T11:12:40.043Z,165
2016-10-01T11:13:25.594Z,165
2016-10-01T11:14:25.420Z,160
2016-10-01T11:15:25.109Z,165
2016-10-01T11:16:25.109Z,165
2016-10-01T11:17:26.412Z,145
2016-10-01T11:18:26.757Z,130
2016-10-01T11:19:26.650Z,125
2016-10-01T11:20:40.611Z,120
2016-10-01T11:21:39.998Z,110
2016-10-01T11:22:25.686Z,105
2016-10-01T11:23:25.326Z,110
2016-10-01T11:24:25.079Z,120
2016-10-01T11:25:25.072Z,130
2016-10-01T11:26:25.060Z,135
2016-10-01T11:27:25.066Z,135
2016-10-01T11:28:25.052Z,120
2016-10-01T11:29:25.045Z,110
2016-10-01T11:30:25.046Z,115
2016-10-01T11:31:25.353Z,125
2016-10-01T11:32:25.057Z,120
2016-10-01T11:33:25.032Z,105
2016-10-01T11:34:25.030Z,100
2016-10-01T11:35:25.040Z,110
2016-10-01T11:36:25.024Z,130
2016-10-01T11:37:25.017Z,140
2016-10-01T11:38:25.013Z,135
2016-10-01T11:39:25.008Z,140
2016-10-01T11:40:25.007Z,150
2016-10-01T11:41:25.004Z,145
2016-10-01T11:42:25.006Z,140
2016-10-01T11:43:24.985Z,140
2016-10-01T11:44:24.977Z,135
2016-10-01T11:45:24.982Z,130
2016-10-01T11:46:24.977Z,125
2016-10-01T11:47:24.977Z,140
2016-10-01T11:48:24.968Z,135
2016-10-01T11:49:24.975Z,140
2016-10-01T11:50:24.957Z,125
2016-10-01T11:51:24.953Z,115
2016-10-01T11:52:24.990Z,120
2016-10-01T11:53:24.944Z,105
2016-10-01T11:54:24.939Z,95
2016-10-01T11:55:24.942Z,95
2016-10-01T11:56:24.931Z,90
2016-10-01T11:57:24.938Z,85
2016-10-01T11:58:24.919Z,85
2016-10-01T11:59:24.907Z,95
2016-10-01T12:01:28.040Z,90
2016-10-01T12:02:26.297Z,85
2016-10-01T12:03:25.464Z,80
2016-10-01T12:04:24.906Z,70
2016-10-01T12:05:25.199Z,75
2016-10-01T12:06:25.326Z,75
2016-10-01T12:07:24.876Z,75
2016-10-01T12:08:24.875Z,80
2016-10-01T12:09:27.255Z,85
2016-10-01T12:10:27.654Z,80
2016-10-01T12:11:25.864Z,85
2016-10-01T12:12:24.991Z,75
2016-10-01T12:13:26.688Z,80
2016-10-01T12:14:24.838Z,70
2016-10-01T12:15:25.048Z,70
2016-10-01T12:16:24.838Z,105
2016-10-01T12:17:24.828Z,80
2016-10-01T12:18:24.823Z,90
2016-10-01T12:19:24.819Z,135
2016-10-01T12:20:24.808Z,125
2016-10-01T12:21:24.810Z,150
2016-10-01T12:22:24.813Z,180
2016-10-01T12:23:25.102Z,200
2016-10-01T12:24:24.790Z,205
2016-10-01T12:25:24.791Z,185
2016-10-01T12:26:40.600Z,185
2016-10-01T12:28:39.787Z,195
2016-10-01T12:29:39.981Z,185
2016-10-01T12:30:26.369Z,175
2016-10-01T12:31:25.009Z,175
2016-10-01T12:32:24.765Z,160
2016-10-01T12:33:24.744Z,145
2016-10-01T12:34:24.759Z,145
2016-10-01T12:35:25.992Z,145
2016-10-01T12:36:25.685Z,145
2016-10-01T12:37:39.645Z,145
2016-10-01T12:38:25.927Z,140
2016-10-01T12:39:26.032Z,130
2016-10-01T12:40:25.222Z,135
2016-10-01T12:41:24.723Z,140
2016-10-01T12:42:24.704Z,180
2016-10-01T12:43:24.701Z,230
2016-10-01T12:44:24.704Z,260
2016-10-01T12:45:24.691Z,265
2016-10-01T12:46:24.689Z,260
2016-10-01T12:47:25.007Z,250
2016-10-01T12:48:24.684Z,245
2016-10-01T12:49:24.671Z,220
2016-10-01T12:50:24.686Z,225
2016-10-01T12:51:24.666Z,235
2016-10-01T12:52:24.666Z,275
2016-10-01T12:53:24.656Z,340
2016-10-01T12:54:24.649Z,365
2016-10-01T12:55:24.639Z,355
2016-10-01T12:56:24.640Z,360
2016-10-01T12:57:24.638Z,375
2016-10-01T12:58:24.632Z,390
2016-10-01T12:59:24.621Z,400
2016-10-01T13:00:24.630Z,385
2016-10-01T13:01:24.617Z,370
2016-10-01T13:02:24.616Z,335
2016-10-01T13:03:24.618Z,310
2016-10-01T13:04:24.612Z,295
2016-10-01T13:05:24.612Z,300
2016-10-01T13:06:24.604Z,315
2016-10-01T13:07:24.597Z,320
2016-10-01T13:08:24.601Z,295
2016-10-01T13:09:24.598Z,260
2016-10-01T13:10:24.585Z,240
2016-10-01T13:11:24.580Z,230
2016-10-01T13:12:24.896Z,220
2016-10-01T13:13:24.587Z,205
2016-10-01T13:14:24.577Z,200
2016-10-01T13:15:24.575Z,195
2016-10-01T13:16:24.879Z,195
2016-10-01T13:17:24.558Z,185
2016-10-01T13:18:26.833Z,170
2016-10-01T13:19:27.008Z,170
2016-10-01T13:20:27.306Z,170
2016-10-01T13:21:26.443Z,180
2016-10-01T13:22:25.446Z,195
2016-10-01T13:23:24.540Z,195
2016-10-01T13:24:24.529Z,195
2016-10-01T13:25:24.530Z,195
2016-10-01T13:26:24.536Z,175
2016-10-01T13:27:26.394Z,155
2016-10-01T13:28:26.889Z,155
2016-10-01T13:29:27.254Z,180
2016-10-01T13:30:26.472Z,215
2016-10-01T13:31:25.528Z,260
2016-10-01T13:32:24.502Z,290
2016-10-01T13:33:24.492Z,285
2016-10-01T13:34:24.496Z,260
2016-10-01T13:35:24.490Z,240
2016-10-01T13:36:24.494Z,250
2016-10-01T13:37:24.477Z,265
2016-10-01T13:38:24.486Z,285
2016-10-01T13:39:24.482Z,290
2016-10-01T13:40:24.482Z,285
2016-10-01T13:41:24.464Z,265
2016-10-01T13:42:24.483Z,250
2016-10-01T13:43:24.457Z,240
2016-10-01T13:44:39.875Z,230
2016-10-01T13:47:39.624Z,185
2016-10-01T13:48:25.298Z,185
2016-10-01T13:49:24.642Z,190
2016-10-01T13:50:24.445Z,190
2016-10-01T13:51:24.431Z,190
2016-10-01T13:52:24.432Z,195
2016-10-01T13:53:25.489Z,205
2016-10-01T13:54:25.332Z,210
2016-10-01T13:55:25.178Z,200
2016-10-01T13:56:26.282Z,185
2016-10-01T13:57:25.908Z,170
2016-10-01T13:58:24.962Z,145
2016-10-01T13:59:24.412Z,125
2016-10-01T14:00:24.412Z,125
2016-10-01T14:01:24.401Z,120
2016-10-01T14:02:24.403Z,120
2016-10-01T14:03:24.408Z,130
2016-10-01T14:04:24.397Z,150
2016-10-01T14:05:24.694Z,180
2016-10-01T14:06:24.378Z,210
2016-10-01T14:07:24.382Z,225
2016-10-01T14:08:24.829Z,235
2016-10-01T14:09:24.376Z,245
2016-10-01T14:10:24.361Z,245
2016-10-01T14:11:24.368Z,235
2016-10-01T14:12:24.364Z,220
2016-10-01T14:13:24.363Z,200
2016-10-01T14:14:24.355Z,185
2016-10-01T14:15:24.345Z,170
2016-10-01T14:16:24.346Z,160
2016-10-01T14:17:24.360Z,160
2016-10-01T14:18:24.347Z,155
2016-10-01T14:19:24.332Z,150
2016-10-01T14:20:24.342Z,150
2016-10-01T14:21:24.327Z,150
2016-10-01T14:22:24.324Z,160
2016-10-01T14:23:24.316Z,170
2016-10-01T14:24:24.322Z,175
2016-10-01T14:25:24.319Z,185
2016-10-01T14:26:24.317Z,185
2016-10-01T14:27:24.312Z,185
2016-10-01T14:28:24.320Z,190
2016-10-01T14:29:24.306Z,200
2016-10-01T14:30:24.310Z,200
2016-10-01T14:31:24.301Z,200
2016-10-01T14:32:24.288Z,200
2016-10-01T14:33:24.296Z,200